createdAt,value
2019-03-28T00:00:16.496Z,4.52
2019-03-28T00:01:16.523Z,4.45
2019-03-28T00:02:16.547Z,4.50
2019-03-28T00:03:16.573Z,4.47
2019-03-28T00:04:17.156Z,4.45
2019-03-28T00:05:16.626Z,4.50
2019-03-28T00:06:16.654Z,4.52
2019-03-28T00:07:16.677Z,4.58
2019-03-28T00:08:16.702Z,4.55
2019-03-28T00:09:16.765Z,4.54
2019-03-28T00:10:16.753Z,4.58
2019-03-28T00:11:16.780Z,4.51
2019-03-28T00:12:16.806Z,4.48
2019-03-28T00:13:16.832Z,4.41
2019-03-28T00:14:16.857Z,4.51
2019-03-28T00:15:16.891Z,4.37
2019-03-28T00:16:16.909Z,4.29
2019-03-28T00:17:16.938Z,4.16
2019-03-28T00:18:16.960Z,4.16
2019-03-28T00:19:16.986Z,4.05
2019-03-28T00:20:17.010Z,4.12
2019-03-28T00:21:17.036Z,4.05
2019-03-28T00:22:17.352Z,3.98
2019-03-28T00:23:17.088Z,4.08
2019-03-28T00:24:17.114Z,4.04
2019-03-28T00:25:17.141Z,4.11
2019-03-28T00:26:29.526Z,4.04
2019-03-28T00:27:17.192Z,4.14
2019-03-28T00:28:17.215Z,4.04
2019-03-28T00:29:17.241Z,4.00
2019-03-28T00:30:17.269Z,4.09
2019-03-28T00:31:17.294Z,3.96
2019-03-28T00:32:17.322Z,3.90
2019-03-28T00:33:17.451Z,3.88
2019-03-28T00:34:17.370Z,3.90
2019-03-28T00:35:17.396Z,3.83
2019-03-28T00:36:17.422Z,4.02
2019-03-28T00:37:17.448Z,3.96
2019-03-28T00:38:17.473Z,3.84
2019-03-28T00:39:17.497Z,3.91
2019-03-28T00:40:19.477Z,3.91
2019-03-28T00:41:17.549Z,3.98
2019-03-28T00:42:17.575Z,3.96
2019-03-28T00:43:17.599Z,3.93
2019-03-28T00:44:17.698Z,3.80
2019-03-28T00:45:17.648Z,3.78
2019-03-28T00:47:17.701Z,3.79
2019-03-28T00:48:17.727Z,3.86
2019-03-28T00:49:18.133Z,3.80
2019-03-28T00:50:17.778Z,3.88
2019-03-28T00:51:17.803Z,3.72
2019-03-28T00:52:17.828Z,3.78
2019-03-28T00:53:17.860Z,3.86
2019-03-28T00:54:17.880Z,3.72
2019-03-28T00:55:17.905Z,3.70
2019-03-28T00:56:17.931Z,3.69
2019-03-28T00:57:17.955Z,3.62
2019-03-28T00:58:17.980Z,3.66
2019-03-28T00:59:18.009Z,3.68
2019-03-28T01:00:18.033Z,3.68
2019-03-28T01:01:18.055Z,3.62
2019-03-28T01:02:18.086Z,3.62
2019-03-28T01:03:18.107Z,3.65
2019-03-28T01:04:18.133Z,3.51
2019-03-28T01:05:18.157Z,3.66
2019-03-28T01:06:18.183Z,3.66
2019-03-28T01:07:18.208Z,3.68
2019-03-28T01:08:18.233Z,3.69
2019-03-28T01:09:18.258Z,3.66
2019-03-28T01:10:18.286Z,3.70
2019-03-28T01:11:18.313Z,3.72
2019-03-28T01:12:18.337Z,3.72
2019-03-28T01:13:18.372Z,3.70
2019-03-28T01:14:18.385Z,3.73
2019-03-28T01:15:18.411Z,3.76
2019-03-28T01:16:18.437Z,3.65
2019-03-28T01:17:18.460Z,3.70
2019-03-28T01:18:18.487Z,3.62
2019-03-28T01:19:18.511Z,3.58
2019-03-28T01:20:18.536Z,3.51
2019-03-28T01:21:18.562Z,3.52
2019-03-28T01:22:18.587Z,3.47
2019-03-28T01:23:18.613Z,3.48
2019-03-28T01:24:18.636Z,3.45
2019-03-28T01:25:18.662Z,3.40
2019-03-28T01:26:18.697Z,3.40
2019-03-28T01:27:18.713Z,3.42
2019-03-28T01:28:18.738Z,3.42
2019-03-28T01:29:18.762Z,3.45
2019-03-28T01:30:18.789Z,3.45
2019-03-28T01:31:18.814Z,3.31
2019-03-28T01:32:18.842Z,3.48
2019-03-28T01:33:18.863Z,3.43
2019-03-28T01:34:18.888Z,3.50
2019-03-28T01:35:18.915Z,3.48
2019-03-28T01:36:18.938Z,3.52
2019-03-28T01:37:18.965Z,3.43
2019-03-28T01:38:18.989Z,3.60
2019-03-28T01:39:19.014Z,3.51
2019-03-28T01:40:19.038Z,3.48
2019-03-28T01:41:19.062Z,3.58
2019-03-28T01:42:19.089Z,3.54
2019-03-28T01:43:19.114Z,3.62
2019-03-28T01:44:19.138Z,3.79
2019-03-28T01:45:19.164Z,3.73
2019-03-28T01:46:19.190Z,3.80
2019-03-28T01:47:19.214Z,3.75
2019-03-28T01:48:19.239Z,3.83
2019-03-28T01:49:19.264Z,3.76
2019-03-28T01:50:19.289Z,3.83
2019-03-28T01:51:19.316Z,3.79
2019-03-28T01:52:19.338Z,3.76
2019-03-28T01:53:19.366Z,3.84
2019-03-28T01:54:19.392Z,3.78
2019-03-28T01:55:19.416Z,3.87
2019-03-28T01:56:19.440Z,3.84
2019-03-28T01:57:19.465Z,3.83
2019-03-28T01:58:19.489Z,3.73
2019-03-28T01:59:19.514Z,3.70
2019-03-28T02:00:19.538Z,3.72
2019-03-28T02:01:19.564Z,3.80
2019-03-28T02:02:20.166Z,3.78
2019-03-28T02:03:19.618Z,3.72
2019-03-28T02:04:19.637Z,3.86
2019-03-28T02:05:19.663Z,3.69
2019-03-28T02:06:19.687Z,3.84
2019-03-28T02:07:19.712Z,3.79
2019-03-28T02:08:19.736Z,3.76
2019-03-28T02:09:19.766Z,3.79
2019-03-28T02:10:19.787Z,3.75
2019-03-28T02:11:19.812Z,3.86
2019-03-28T02:12:19.837Z,3.90
2019-03-28T02:13:19.860Z,3.75
2019-03-28T02:14:19.885Z,3.66
2019-03-28T02:15:19.910Z,3.68
2019-03-28T02:16:19.935Z,3.66
2019-03-28T02:17:19.960Z,3.65
2019-03-28T02:18:19.991Z,3.65
2019-03-28T02:19:20.013Z,3.55
2019-03-28T02:20:20.035Z,3.43
2019-03-28T02:21:20.059Z,3.35
2019-03-28T02:22:20.084Z,3.23
2019-03-28T02:23:20.109Z,3.18
2019-03-28T02:24:20.132Z,3.18
2019-03-28T02:25:20.169Z,3.03
2019-03-28T02:26:20.183Z,3.14
2019-03-28T02:27:24.254Z,3.14
2019-03-28T02:28:20.232Z,3.17
2019-03-28T02:29:20.257Z,3.17
2019-03-28T02:30:20.282Z,3.20
2019-03-28T02:31:20.315Z,3.18
2019-03-28T02:32:20.332Z,3.31
2019-03-28T02:33:20.360Z,3.33
2019-03-28T02:34:20.380Z,3.39
2019-03-28T02:35:20.406Z,3.35
2019-03-28T02:36:20.430Z,3.35
2019-03-28T02:37:20.454Z,3.51
2019-03-28T02:38:20.509Z,3.20
2019-03-28T02:39:20.504Z,3.14
2019-03-28T02:40:20.529Z,3.00
2019-03-28T02:41:20.553Z,3.03
2019-03-28T02:42:20.577Z,2.99
2019-03-28T02:43:20.602Z,2.90
2019-03-28T02:44:20.627Z,2.92
2019-03-28T02:45:20.653Z,2.82
2019-03-28T02:46:20.677Z,2.85
2019-03-28T02:47:20.703Z,2.89
2019-03-28T02:48:20.725Z,2.72
2019-03-28T02:49:20.757Z,2.78
2019-03-28T02:50:20.775Z,2.71
2019-03-28T02:51:20.828Z,2.71
2019-03-28T02:52:21.548Z,2.67
2019-03-28T02:53:20.848Z,2.66
2019-03-28T02:54:20.873Z,2.69
2019-03-28T02:55:20.899Z,2.57
2019-03-28T02:56:20.922Z,2.56
2019-03-28T02:57:20.953Z,2.48
2019-03-28T02:58:20.974Z,2.52
2019-03-28T02:59:20.997Z,2.45
2019-03-28T03:00:21.235Z,2.46
2019-03-28T03:01:21.051Z,2.45
2019-03-28T03:02:21.074Z,2.45
2019-03-28T03:03:21.094Z,2.48
2019-03-28T03:04:21.119Z,2.46
2019-03-28T03:05:21.145Z,2.46
2019-03-28T03:06:21.168Z,2.43
2019-03-28T03:07:21.196Z,2.46
2019-03-28T03:08:21.219Z,2.48
2019-03-28T03:09:21.243Z,2.49
2019-03-28T03:10:21.275Z,2.41
2019-03-28T03:11:21.297Z,2.48
2019-03-28T03:12:21.318Z,2.45
2019-03-28T03:13:21.343Z,2.45
2019-03-28T03:14:21.366Z,2.46
2019-03-28T03:15:21.396Z,2.45
2019-03-28T03:16:22.089Z,2.54
2019-03-28T03:17:21.442Z,2.52
2019-03-28T03:18:21.868Z,2.43
2019-03-28T03:19:21.492Z,2.48
2019-03-28T03:20:21.523Z,2.49
2019-03-28T03:21:21.544Z,2.43
2019-03-28T03:22:21.575Z,2.39
2019-03-28T03:23:21.590Z,2.43
2019-03-28T03:24:21.616Z,2.41
2019-03-28T03:25:21.648Z,2.46
2019-03-28T03:26:21.664Z,2.28
2019-03-28T03:27:21.692Z,2.31
2019-03-28T03:28:21.715Z,2.25
2019-03-28T03:29:21.743Z,2.34
2019-03-28T03:30:21.762Z,2.30
2019-03-28T03:31:22.145Z,2.23
2019-03-28T03:32:21.813Z,2.17
2019-03-28T03:33:21.838Z,2.17
2019-03-28T03:34:21.863Z,2.20
2019-03-28T03:35:21.980Z,2.16
2019-03-28T03:36:21.911Z,2.12
2019-03-28T03:37:21.947Z,2.16
2019-03-28T03:38:22.039Z,2.12
2019-03-28T03:39:21.984Z,2.12
2019-03-28T03:40:22.008Z,2.12
2019-03-28T03:41:22.034Z,2.16
2019-03-28T03:42:22.061Z,2.16
2019-03-28T03:43:23.062Z,2.12
2019-03-28T03:44:22.110Z,2.16
2019-03-28T03:45:22.140Z,2.18
2019-03-28T03:46:22.159Z,2.16
2019-03-28T03:47:22.181Z,2.14
2019-03-28T03:48:22.206Z,2.10
2019-03-28T03:49:22.231Z,2.12
2019-03-28T03:50:22.475Z,2.12
2019-03-28T03:51:22.281Z,2.30
2019-03-28T03:52:22.306Z,2.25
2019-03-28T03:53:22.328Z,2.25
2019-03-28T03:54:22.370Z,2.27
2019-03-28T03:55:22.379Z,2.25
2019-03-28T03:56:22.402Z,2.24
2019-03-28T03:57:22.428Z,2.34
2019-03-28T03:58:22.483Z,2.24
2019-03-28T03:59:22.486Z,2.24
2019-03-28T04:00:22.499Z,2.27
2019-03-28T04:01:22.524Z,2.35
2019-03-28T04:02:22.550Z,2.24
2019-03-28T04:03:22.582Z,2.16
2019-03-28T04:04:22.598Z,2.17
2019-03-28T04:05:22.622Z,2.16
2019-03-28T04:06:22.648Z,2.18
2019-03-28T04:07:22.672Z,2.10
2019-03-28T04:08:22.695Z,1.86
2019-03-28T04:09:22.719Z,1.88
2019-03-28T04:10:22.744Z,1.83
2019-03-28T04:11:22.769Z,1.81
2019-03-28T04:12:22.794Z,1.66
2019-03-28T04:13:22.817Z,1.72
2019-03-28T04:14:22.842Z,1.87
2019-03-28T04:15:22.867Z,1.80
2019-03-28T04:16:22.899Z,1.76
2019-03-28T04:17:22.916Z,1.72
2019-03-28T04:18:22.949Z,1.66
2019-03-28T04:19:22.963Z,1.81
2019-03-28T04:20:22.991Z,1.87
2019-03-28T04:21:23.013Z,1.80
2019-03-28T04:22:23.036Z,2.03
2019-03-28T04:23:23.061Z,1.99
2019-03-28T04:24:23.083Z,2.07
2019-03-28T04:25:23.113Z,2.12
2019-03-28T04:26:23.133Z,2.23
2019-03-28T04:27:23.164Z,2.23
2019-03-28T04:28:31.417Z,2.10
2019-03-28T04:29:23.208Z,2.20
2019-03-28T04:30:23.229Z,2.09
2019-03-28T04:31:23.255Z,2.16
2019-03-28T04:32:23.279Z,2.16
2019-03-28T04:33:23.304Z,2.12
2019-03-28T04:34:23.328Z,2.27
2019-03-28T04:35:23.359Z,2.27
2019-03-28T04:36:23.374Z,2.27
2019-03-28T04:37:23.399Z,2.38
2019-03-28T04:38:24.545Z,2.39
2019-03-28T04:39:23.458Z,2.42
2019-03-28T04:40:23.472Z,2.31
2019-03-28T04:41:23.498Z,2.28
2019-03-28T04:42:23.571Z,2.28
2019-03-28T04:43:23.547Z,2.16
2019-03-28T04:44:23.570Z,2.18
2019-03-28T04:45:23.592Z,2.12
2019-03-28T04:46:23.618Z,2.12
2019-03-28T04:47:23.642Z,2.18
2019-03-28T04:48:23.664Z,2.16
2019-03-28T04:49:23.690Z,2.27
2019-03-28T04:50:23.713Z,2.28
2019-03-28T04:51:23.739Z,2.25
2019-03-28T04:52:23.760Z,2.35
2019-03-28T04:53:23.794Z,2.28
2019-03-28T04:54:23.808Z,2.25
2019-03-28T04:55:23.833Z,2.28
2019-03-28T04:56:23.856Z,2.27
2019-03-28T04:57:23.882Z,2.25
2019-03-28T04:58:23.907Z,2.20
2019-03-28T04:59:23.930Z,2.17
2019-03-28T05:00:23.953Z,2.17
2019-03-28T05:01:23.980Z,1.91
2019-03-28T05:02:24.002Z,1.83
2019-03-28T05:03:24.027Z,1.63
2019-03-28T05:04:24.052Z,1.62
2019-03-28T05:05:24.074Z,1.55
2019-03-28T05:06:24.374Z,1.55
2019-03-28T05:07:24.122Z,1.48
2019-03-28T05:08:24.146Z,1.47
2019-03-28T05:09:24.169Z,1.42
2019-03-28T05:10:24.194Z,1.51
2019-03-28T05:11:24.218Z,1.58
2019-03-28T05:12:24.241Z,1.51
2019-03-28T05:13:24.265Z,1.62
2019-03-28T05:14:24.291Z,1.66
2019-03-28T05:15:24.315Z,1.87
2019-03-28T05:16:24.337Z,1.90
2019-03-28T05:17:24.362Z,1.90
2019-03-28T05:18:24.386Z,2.03
2019-03-28T05:19:24.412Z,2.07
2019-03-28T05:20:24.433Z,2.12
2019-03-28T05:21:24.457Z,2.16
2019-03-28T05:22:24.481Z,2.12
2019-03-28T05:23:24.513Z,2.12
2019-03-28T05:24:25.560Z,2.14
2019-03-28T05:25:24.554Z,2.18
2019-03-28T05:26:24.579Z,2.16
2019-03-28T05:27:24.602Z,2.12
2019-03-28T05:28:25.423Z,2.20
2019-03-28T05:29:24.649Z,2.25
2019-03-28T05:30:24.673Z,2.16
2019-03-28T05:31:24.698Z,2.28
2019-03-28T05:32:24.721Z,2.24
2019-03-28T05:33:24.745Z,2.34
2019-03-28T05:34:24.769Z,2.24
2019-03-28T05:35:24.797Z,2.20
2019-03-28T05:36:24.817Z,2.36
2019-03-28T05:37:24.841Z,2.23
2019-03-28T05:38:24.864Z,2.20
2019-03-28T05:39:24.889Z,2.27
2019-03-28T05:40:24.913Z,2.34
2019-03-28T05:41:24.936Z,2.16
2019-03-28T05:42:24.960Z,2.14
2019-03-28T05:43:24.985Z,2.24
2019-03-28T05:44:25.008Z,2.25
2019-03-28T05:45:25.033Z,2.27
2019-03-28T05:46:25.055Z,2.23
2019-03-28T05:47:25.085Z,2.27
2019-03-28T05:48:25.107Z,2.36
2019-03-28T05:49:25.127Z,2.35
2019-03-28T05:50:25.154Z,2.36
2019-03-28T05:51:25.176Z,2.38
2019-03-28T05:52:25.199Z,2.30
2019-03-28T05:53:25.224Z,2.39
2019-03-28T05:54:25.249Z,2.38
2019-03-28T05:55:25.271Z,2.43
2019-03-28T05:56:25.295Z,2.49
2019-03-28T05:57:25.320Z,2.35
2019-03-28T05:58:25.349Z,2.30
2019-03-28T05:59:25.388Z,2.34
2019-03-28T06:00:25.392Z,2.34
2019-03-28T06:01:25.415Z,2.36
2019-03-28T06:02:25.441Z,2.31
2019-03-28T06:03:25.465Z,2.28
2019-03-28T06:04:25.487Z,2.28
2019-03-28T06:05:26.358Z,2.28
2019-03-28T06:06:25.537Z,2.27
2019-03-28T06:07:25.560Z,2.28
2019-03-28T06:08:25.584Z,2.23
2019-03-28T06:09:25.610Z,2.28
2019-03-28T06:10:25.634Z,2.20
2019-03-28T06:11:25.657Z,2.38
2019-03-28T06:12:25.681Z,2.28
2019-03-28T06:13:25.706Z,2.41
2019-03-28T06:14:25.731Z,2.42
2019-03-28T06:15:25.755Z,2.42
2019-03-28T06:16:25.779Z,2.57
2019-03-28T06:17:25.802Z,2.56
2019-03-28T06:18:25.827Z,2.59
2019-03-28T06:19:25.901Z,2.64
2019-03-28T06:20:25.890Z,2.66
2019-03-28T06:21:25.902Z,2.64
2019-03-28T06:22:25.926Z,2.69
2019-03-28T06:23:25.950Z,2.67
2019-03-28T06:24:25.973Z,2.71
2019-03-28T06:25:25.999Z,2.77
2019-03-28T06:26:26.022Z,2.79
2019-03-28T06:27:26.047Z,2.79
2019-03-28T06:28:26.072Z,2.81
2019-03-28T06:29:26.177Z,2.84
2019-03-28T06:30:26.119Z,2.95
2019-03-28T06:31:26.145Z,2.84
2019-03-28T06:32:26.168Z,2.95
2019-03-28T06:33:26.197Z,3.03
2019-03-28T06:34:26.548Z,3.05
2019-03-28T06:35:26.244Z,3.02
2019-03-28T06:36:26.827Z,3.00
2019-03-28T06:37:26.292Z,3.02
2019-03-28T06:38:26.318Z,3.11
2019-03-28T06:39:26.343Z,3.15
2019-03-28T06:40:26.367Z,3.17
2019-03-28T06:41:26.393Z,3.17
2019-03-28T06:42:26.417Z,3.17
2019-03-28T06:43:26.442Z,3.31
2019-03-28T06:44:26.468Z,3.29
2019-03-28T06:45:26.491Z,3.39
2019-03-28T06:46:26.518Z,3.70
2019-03-28T06:47:26.541Z,3.84
2019-03-28T06:48:26.566Z,3.88
2019-03-28T06:49:26.592Z,4.11
2019-03-28T06:50:26.616Z,4.22
2019-03-28T06:51:26.642Z,4.36
2019-03-28T06:52:26.667Z,4.44
2019-03-28T06:53:26.694Z,4.65
2019-03-28T06:54:26.720Z,4.82
2019-03-28T06:55:26.743Z,4.80
2019-03-28T06:56:26.768Z,4.89
2019-03-28T06:57:26.796Z,5.10
2019-03-28T06:58:26.818Z,5.10
2019-03-28T06:59:36.695Z,5.24
2019-03-28T07:00:26.869Z,5.42
2019-03-28T07:01:26.893Z,5.45
2019-03-28T07:02:26.921Z,5.61
2019-03-28T07:03:26.945Z,5.67
2019-03-28T07:04:26.973Z,5.65
2019-03-28T07:05:26.994Z,5.74
2019-03-28T07:06:27.021Z,5.81
2019-03-28T07:07:27.060Z,5.89
2019-03-28T07:08:27.070Z,5.83
2019-03-28T07:09:27.097Z,5.86
2019-03-28T07:10:27.125Z,5.93
2019-03-28T07:11:27.150Z,5.89
2019-03-28T07:12:27.175Z,5.91
2019-03-28T07:13:27.200Z,5.79
2019-03-28T07:14:28.235Z,5.82
2019-03-28T07:15:27.250Z,5.81
2019-03-28T07:16:27.276Z,5.86
2019-03-28T07:17:27.302Z,5.85
2019-03-28T07:18:27.329Z,5.90
2019-03-28T07:19:27.354Z,5.82
2019-03-28T07:20:27.379Z,5.83
2019-03-28T07:21:27.405Z,5.97
2019-03-28T07:22:27.432Z,5.91
2019-03-28T07:23:27.462Z,6.00
2019-03-28T07:24:27.485Z,6.06
2019-03-28T07:25:27.511Z,6.12
2019-03-28T07:26:27.537Z,6.04
2019-03-28T07:27:27.563Z,6.06
2019-03-28T07:28:27.588Z,6.04
2019-03-28T07:29:27.615Z,6.17
2019-03-28T07:30:27.642Z,6.17
2019-03-28T07:31:27.669Z,6.28
2019-03-28T07:32:27.694Z,6.37
2019-03-28T07:33:27.724Z,6.49
2019-03-28T07:34:27.746Z,6.56
2019-03-28T07:35:27.774Z,6.69
2019-03-28T07:36:27.800Z,6.71
2019-03-28T07:37:28.318Z,6.88
2019-03-28T07:38:27.854Z,7.03
2019-03-28T07:39:27.882Z,7.07
2019-03-28T07:40:27.907Z,7.13
2019-03-28T07:41:27.935Z,7.17
2019-03-28T07:42:27.964Z,7.28
2019-03-28T07:43:27.991Z,7.30
2019-03-28T07:44:28.602Z,7.34
2019-03-28T07:45:28.042Z,7.37
2019-03-28T07:46:28.403Z,7.48
2019-03-28T07:47:28.100Z,7.63
2019-03-28T07:48:28.125Z,7.77
2019-03-28T07:49:28.150Z,7.69
2019-03-28T07:50:28.179Z,7.87
2019-03-28T07:51:28.206Z,7.98
2019-03-28T07:52:28.234Z,8.07
2019-03-28T07:53:28.265Z,8.26
2019-03-28T07:54:28.288Z,8.30
2019-03-28T07:55:28.318Z,8.37
2019-03-28T07:56:28.346Z,8.41
2019-03-28T07:57:28.373Z,8.48
2019-03-28T07:58:28.402Z,8.48
2019-03-28T07:59:28.430Z,8.44
2019-03-28T08:00:28.458Z,8.52
2019-03-28T08:01:28.486Z,8.47
2019-03-28T08:02:28.514Z,8.53
2019-03-28T08:03:28.542Z,8.56
2019-03-28T08:04:28.569Z,8.55
2019-03-28T08:05:28.611Z,8.71
2019-03-28T08:06:28.631Z,8.74
2019-03-28T08:07:28.654Z,8.77
2019-03-28T08:08:38.338Z,8.91
2019-03-28T08:09:36.605Z,8.95
2019-03-28T08:10:28.779Z,9.10
2019-03-28T08:11:28.818Z,9.21
2019-03-28T08:12:28.795Z,9.31
2019-03-28T08:13:28.825Z,9.24
2019-03-28T08:14:28.854Z,9.31
2019-03-28T08:15:28.883Z,9.23
2019-03-28T08:16:29.141Z,9.26
2019-03-28T08:17:28.939Z,9.26
2019-03-28T08:18:28.968Z,9.28
2019-03-28T08:19:28.996Z,9.46
2019-03-28T08:20:29.025Z,9.54
2019-03-28T08:21:29.055Z,9.57
2019-03-28T08:22:29.873Z,9.74
2019-03-28T08:23:29.113Z,9.66
2019-03-28T08:24:29.140Z,9.66
2019-03-28T08:25:29.169Z,9.69
2019-03-28T08:26:30.429Z,9.83
2019-03-28T08:27:29.228Z,9.84
2019-03-28T08:28:29.257Z,9.74
2019-03-28T08:29:29.308Z,9.78
2019-03-28T08:30:29.517Z,9.91
2019-03-28T08:31:29.346Z,10.09
2019-03-28T08:32:29.374Z,10.08
2019-03-28T08:33:29.403Z,10.08
2019-03-28T08:34:31.319Z,10.18
2019-03-28T08:35:29.463Z,10.04
2019-03-28T08:36:29.491Z,9.96
2019-03-28T08:37:29.523Z,10.07
2019-03-28T08:38:29.549Z,10.05
2019-03-28T08:39:29.581Z,10.11
2019-03-28T08:40:29.608Z,10.11
2019-03-28T08:41:29.639Z,10.04
2019-03-28T08:42:29.667Z,9.94
2019-03-28T08:43:29.700Z,9.66
2019-03-28T08:44:29.726Z,9.74
2019-03-28T08:45:29.758Z,9.84
2019-03-28T08:46:29.788Z,10.04
2019-03-28T08:47:29.825Z,10.25
2019-03-28T08:48:29.846Z,10.44
2019-03-28T08:49:29.876Z,10.36
2019-03-28T08:50:29.906Z,10.34
2019-03-28T08:51:29.935Z,10.53
2019-03-28T08:52:29.970Z,10.68
2019-03-28T08:53:29.994Z,10.66
2019-03-28T08:54:30.026Z,10.68
2019-03-28T08:55:30.055Z,10.73
2019-03-28T08:56:30.089Z,10.92
2019-03-28T08:57:30.126Z,10.94
2019-03-28T08:58:30.148Z,10.88
2019-03-28T08:59:49.384Z,11.02
2019-03-28T09:00:34.994Z,11.39
2019-03-28T09:01:30.236Z,11.94
2019-03-28T09:02:30.267Z,12.50
2019-03-28T09:03:30.296Z,13.42
2019-03-28T09:04:30.327Z,14.50
2019-03-28T09:05:30.358Z,15.39
2019-03-28T09:06:30.389Z,15.87
2019-03-28T09:07:30.436Z,16.38
2019-03-28T09:08:30.453Z,16.96
2019-03-28T09:09:30.486Z,16.83
2019-03-28T09:10:30.518Z,16.94
2019-03-28T09:11:30.551Z,17.14
2019-03-28T09:12:30.585Z,16.91
2019-03-28T09:13:30.618Z,17.52
2019-03-28T09:14:56.341Z,17.75
2019-03-28T09:15:43.063Z,18.10
2019-03-28T09:16:30.720Z,18.44
2019-03-28T09:17:30.769Z,19.26
2019-03-28T09:18:30.791Z,19.36
2019-03-28T09:19:30.827Z,19.86
2019-03-28T09:20:30.862Z,20.54
2019-03-28T09:21:30.897Z,20.36
2019-03-28T09:22:30.936Z,20.31
2019-03-28T09:23:30.971Z,20.64
2019-03-28T09:24:31.010Z,20.24
2019-03-28T09:25:31.045Z,20.80
2019-03-28T09:26:31.082Z,20.51
2019-03-28T09:27:31.122Z,20.73
2019-03-28T09:28:31.159Z,20.66
2019-03-28T09:29:31.197Z,20.87
2019-03-28T09:30:31.238Z,19.69
2019-03-28T09:31:31.275Z,20.38
2019-03-28T09:32:31.313Z,21.09
2019-03-28T09:33:31.353Z,20.80
2019-03-28T09:34:31.392Z,20.73
2019-03-28T09:35:31.466Z,21.17
2019-03-28T09:36:31.479Z,21.99
2019-03-28T09:37:31.511Z,22.27
2019-03-28T09:38:31.551Z,21.04
2019-03-28T09:39:31.592Z,20.69
2019-03-28T09:40:31.631Z,20.10
2019-03-28T09:41:31.672Z,20.66
2019-03-28T09:42:31.715Z,20.59
2019-03-28T09:43:31.755Z,20.59
2019-03-28T09:44:32.019Z,20.89
2019-03-28T09:45:31.859Z,20.76
2019-03-28T09:46:31.907Z,20.94
2019-03-28T09:49:32.007Z,23.16
2019-03-28T09:52:32.126Z,23.79
2019-03-28T09:53:32.194Z,24.31
2019-03-28T09:54:32.209Z,24.77
2019-03-28T09:55:32.275Z,23.79
2019-03-28T09:56:32.292Z,22.88
2019-03-28T09:57:32.356Z,22.36
2019-03-28T09:58:32.376Z,21.06
2019-03-28T09:59:32.419Z,21.38
2019-03-28T10:00:33.111Z,22.42
2019-03-28T10:01:32.502Z,22.92
2019-03-28T10:02:32.546Z,22.90
2019-03-28T10:03:32.588Z,22.95
2019-03-28T10:04:32.632Z,23.87
2019-03-28T10:05:32.674Z,24.30
2019-03-28T10:06:32.717Z,24.55
2019-03-28T10:07:32.760Z,24.99
2019-03-28T10:08:32.802Z,24.95
2019-03-28T10:09:32.888Z,25.77
2019-03-28T10:10:32.890Z,25.40
2019-03-28T10:11:32.935Z,25.67
2019-03-28T10:12:34.361Z,26.20
2019-03-28T10:13:33.245Z,26.66
2019-03-28T10:14:33.086Z,26.67
2019-03-28T10:15:33.110Z,26.73
2019-03-28T10:16:33.176Z,27.43
2019-03-28T10:17:33.198Z,27.87
2019-03-28T10:18:33.246Z,28.31
2019-03-28T10:22:33.442Z,28.09
2019-03-28T10:23:33.466Z,28.36
2019-03-28T10:25:33.574Z,27.94
2019-03-28T10:27:34.687Z,25.32
2019-03-28T10:32:05.032Z,25.57
2019-03-28T10:33:05.087Z,25.88
2019-03-28T10:34:05.122Z,27.12
2019-03-28T10:35:06.986Z,26.99
2019-03-28T10:36:05.227Z,26.32
2019-03-28T10:37:05.259Z,26.20
2019-03-28T10:39:47.922Z,26.55
2019-03-28T10:40:48.000Z,27.06
2019-03-28T10:41:48.024Z,26.97
2019-03-28T10:42:48.062Z,26.51
2019-03-28T10:43:48.109Z,27.47
2019-03-28T10:44:48.155Z,27.55
2019-03-28T10:45:51.435Z,27.49
2019-03-28T10:46:48.854Z,26.82
2019-03-28T10:47:48.299Z,26.91
2019-03-28T10:48:48.358Z,27.14
2019-03-28T10:49:48.386Z,27.46
2019-03-28T10:50:48.433Z,26.92
2019-03-28T10:51:48.480Z,27.34
2019-03-28T10:53:48.775Z,28.03
2019-03-28T10:54:51.851Z,26.28
2019-03-28T10:55:48.668Z,26.43
2019-03-28T10:56:52.028Z,26.63
2019-03-28T10:57:48.992Z,26.69
2019-03-28T11:00:48.906Z,28.61
2019-03-28T11:01:50.714Z,28.95
2019-03-28T11:02:49.051Z,28.80
2019-03-28T11:03:49.046Z,29.33
2019-03-28T11:04:49.097Z,30.13
2019-03-28T11:05:49.136Z,30.19
2019-03-28T11:06:49.182Z,29.92
2019-03-28T11:08:49.280Z,31.20
2019-03-28T11:09:49.330Z,31.21
2019-03-28T11:10:49.375Z,30.00
2019-03-28T11:11:49.522Z,30.23
2019-03-28T11:12:49.471Z,28.31
2019-03-28T11:13:49.519Z,28.48
2019-03-28T11:14:49.567Z,29.33
2019-03-28T11:15:49.619Z,28.90
2019-03-28T11:16:49.663Z,28.92
2019-03-28T11:17:49.710Z,30.07
2019-03-28T11:18:49.990Z,29.94
2019-03-28T11:19:49.807Z,30.27
2019-03-28T11:20:49.855Z,31.54
2019-03-28T11:21:49.903Z,32.23
2019-03-28T11:22:49.953Z,31.16
2019-03-28T11:24:32.563Z,31.65
2019-03-28T11:25:32.611Z,32.63
2019-03-28T11:26:32.660Z,31.88
2019-03-28T11:27:32.707Z,31.84
2019-03-28T11:28:32.776Z,31.09
2019-03-28T11:29:33.751Z,31.32
2019-03-28T11:30:32.855Z,29.42
2019-03-28T11:31:45.514Z,28.49
2019-03-28T11:32:35.785Z,27.34
2019-03-28T11:33:33.003Z,28.59
2019-03-28T11:34:33.053Z,29.28
2019-03-28T11:35:33.106Z,30.31
2019-03-28T11:36:33.150Z,31.29
2019-03-28T11:37:33.199Z,32.04
2019-03-28T11:38:33.249Z,32.66
2019-03-28T11:39:33.296Z,32.66
2019-03-28T11:40:33.346Z,31.62
2019-03-28T11:41:33.395Z,31.47
2019-03-28T11:42:33.445Z,32.07
2019-03-28T11:43:33.498Z,32.55
2019-03-28T11:44:33.543Z,31.95
2019-03-28T11:45:33.591Z,32.99
2019-03-28T11:46:33.644Z,33.35
2019-03-28T11:47:33.688Z,33.37
2019-03-28T11:48:33.741Z,33.23
2019-03-28T11:49:33.786Z,33.73
2019-03-28T11:50:33.836Z,33.47
2019-03-28T11:51:36.215Z,32.29
2019-03-28T11:52:33.933Z,31.65
2019-03-28T11:53:33.983Z,31.66
2019-03-28T11:54:34.033Z,32.51
2019-03-28T11:55:34.084Z,33.38
2019-03-28T11:56:34.131Z,32.65
2019-03-28T11:57:34.182Z,31.01
2019-03-28T11:58:34.230Z,31.10
2019-03-28T11:59:34.278Z,30.10
2019-03-28T12:00:34.329Z,31.09
2019-03-28T12:01:34.379Z,31.99
2019-03-28T12:02:34.429Z,31.66
2019-03-28T12:03:34.475Z,32.18
2019-03-28T12:04:34.526Z,32.81
2019-03-28T12:05:34.575Z,32.88
2019-03-28T12:06:34.629Z,33.04
2019-03-28T12:07:34.673Z,32.70
2019-03-28T12:08:34.722Z,31.75
2019-03-28T12:09:34.772Z,30.97
2019-03-28T12:10:34.825Z,29.79
2019-03-28T12:11:34.870Z,30.32
2019-03-28T12:12:34.921Z,31.56
2019-03-28T12:13:44.647Z,31.43
2019-03-28T12:14:35.024Z,31.75
2019-03-28T12:15:35.070Z,30.86
2019-03-28T12:16:35.116Z,30.61
2019-03-28T12:17:35.180Z,31.10
2019-03-28T12:18:35.214Z,32.11
2019-03-28T12:19:35.262Z,31.26
2019-03-28T12:20:35.311Z,31.10
2019-03-28T12:21:35.362Z,31.47
2019-03-28T12:22:35.409Z,31.07
2019-03-28T12:23:35.457Z,31.09
2019-03-28T12:24:35.505Z,29.48
2019-03-28T12:25:35.554Z,29.70
2019-03-28T12:26:35.603Z,30.45
2019-03-28T12:27:35.655Z,30.07
2019-03-28T12:28:35.700Z,29.34
2019-03-28T12:29:36.054Z,28.93
2019-03-28T12:30:35.798Z,29.94
2019-03-28T12:31:35.845Z,29.65
2019-03-28T12:32:35.894Z,30.22
2019-03-28T12:33:35.945Z,30.82
2019-03-28T12:34:35.993Z,30.99
2019-03-28T12:35:36.041Z,31.06
2019-03-28T12:36:36.089Z,31.62
2019-03-28T12:37:36.768Z,30.35
2019-03-28T12:38:36.186Z,29.87
2019-03-28T12:39:36.234Z,29.43
2019-03-28T12:40:36.282Z,29.97
2019-03-28T12:41:36.382Z,30.55
2019-03-28T12:42:36.380Z,30.89
2019-03-28T12:43:36.427Z,29.92
2019-03-28T12:44:36.477Z,30.24
2019-03-28T12:45:36.525Z,31.02
2019-03-28T12:46:36.581Z,31.81
2019-03-28T12:47:42.672Z,32.33
2019-03-28T12:48:36.723Z,32.47
2019-03-28T12:49:36.717Z,32.25
2019-03-28T12:50:36.766Z,31.29
2019-03-28T12:51:36.815Z,31.54
2019-03-28T12:52:36.861Z,30.83
2019-03-28T12:53:36.910Z,28.81
2019-03-28T12:54:36.959Z,28.88
2019-03-28T12:55:37.005Z,29.52
2019-03-28T12:56:37.054Z,29.76
2019-03-28T12:57:37.102Z,31.21
2019-03-28T12:58:37.151Z,32.51
2019-03-28T12:59:37.200Z,32.89
2019-03-28T13:00:37.246Z,32.93
2019-03-28T13:01:37.297Z,33.18
2019-03-28T13:02:37.342Z,32.96
2019-03-28T13:03:45.303Z,31.86
2019-03-28T13:04:37.438Z,30.46
2019-03-28T13:05:37.488Z,30.43
2019-03-28T13:06:37.535Z,29.79
2019-03-28T13:07:37.582Z,30.49
2019-03-28T13:08:37.630Z,29.49
2019-03-28T13:09:37.678Z,29.18
2019-03-28T13:10:37.733Z,29.63
2019-03-28T13:11:37.775Z,30.23
2019-03-28T13:12:38.005Z,30.23
2019-03-28T13:13:37.870Z,30.65
2019-03-28T13:14:37.919Z,31.26
2019-03-28T13:15:37.976Z,31.10
2019-03-28T13:16:38.015Z,31.13
2019-03-28T13:17:38.062Z,31.21
2019-03-28T13:18:38.110Z,31.39
2019-03-28T13:19:38.158Z,30.99
2019-03-28T13:20:38.206Z,30.77
2019-03-28T13:21:38.252Z,30.54
2019-03-28T13:22:38.303Z,31.46
2019-03-28T13:23:38.347Z,31.20
2019-03-28T13:24:38.397Z,30.94
2019-03-28T13:25:38.445Z,32.11
2019-03-28T13:26:38.492Z,31.57
2019-03-28T13:27:38.540Z,30.65
2019-03-28T13:28:38.588Z,31.16
2019-03-28T13:29:38.635Z,31.02